sensor_id;sensor_type;location;lat;lon;timestamp;P1;durP1;ratioP1;P2;durP2;ratioP2
73100;SDS011;61288;53.446;-2.266;2023-11-19T00:02:18;17.50;;;2.95;;
73100;SDS011;61288;53.446;-2.266;2023-11-19T00:04:44;20.27;;;3.53;;
73100;SDS011;61288;53.446;-2.266;2023-11-19T00:07:10;19.83;;;3.50;;
73100;SDS011;61288;53.446;-2.266;2023-11-19T00:09:38;23.33;;;3.17;;
73100;SDS011;61288;53.446;-2.266;2023-11-19T00:12:04;22.63;;;3.25;;
73100;SDS011;61288;53.446;-2.266;2023-11-19T00:14:31;32.00;;;4.25;;
73100;SDS011;61288;53.446;-2.266;2023-11-19T00:16:58;25.67;;;3.72;;
73100;SDS011;61288;53.446;-2.266;2023-11-19T00:19:24;22.70;;;3.78;;
73100;SDS011;61288;53.446;-2.266;2023-11-19T00:21:49;23.85;;;3.13;;
73100;SDS011;61288;53.446;-2.266;2023-11-19T00:24:15;24.92;;;3.50;;
73100;SDS011;61288;53.446;-2.266;2023-11-19T00:26:42;18.15;;;3.60;;
73100;SDS011;61288;53.446;-2.266;2023-11-19T00:29:07;20.48;;;3.17;;
73100;SDS011;61288;53.446;-2.266;2023-11-19T00:31:33;26.50;;;4.43;;
73100;SDS011;61288;53.446;-2.266;2023-11-19T00:33:59;21.17;;;3.70;;
73100;SDS011;61288;53.446;-2.266;2023-11-19T00:36:24;24.73;;;3.92;;
73100;SDS011;61288;53.446;-2.266;2023-11-19T00:38:50;26.40;;;4.07;;
73100;SDS011;61288;53.446;-2.266;2023-11-19T00:41:18;27.38;;;3.53;;
73100;SDS011;61288;53.446;-2.266;2023-11-19T00:43:44;20.05;;;2.95;;
73100;SDS011;61288;53.446;-2.266;2023-11-19T00:46:09;20.00;;;3.20;;
73100;SDS011;61288;53.446;-2.266;2023-11-19T00:48:36;18.38;;;3.28;;
73100;SDS011;61288;53.446;-2.266;2023-11-19T00:51:02;20.98;;;3.40;;
73100;SDS011;61288;53.446;-2.266;2023-11-19T00:53:29;19.38;;;2.92;;
73100;SDS011;61288;53.446;-2.266;2023-11-19T00:55:54;14.63;;;2.58;;
73100;SDS011;61288;53.446;-2.266;2023-11-19T00:58:20;22.88;;;3.10;;
73100;SDS011;61288;53.446;-2.266;2023-11-19T01:00:45;17.48;;;2.92;;
73100;SDS011;61288;53.446;-2.266;2023-11-19T01:03:11;20.10;;;3.83;;
73100;SDS011;61288;53.446;-2.266;2023-11-19T01:05:36;16.60;;;3.05;;
73100;SDS011;61288;53.446;-2.266;2023-11-19T01:08:04;24.42;;;3.88;;
73100;SDS011;61288;53.446;-2.266;2023-11-19T01:10:31;19.63;;;3.45;;
73100;SDS011;61288;53.446;-2.266;2023-11-19T01:12:56;18.33;;;3.28;;
73100;SDS011;61288;53.446;-2.266;2023-11-19T01:15:22;20.67;;;3.47;;
73100;SDS011;61288;53.446;-2.266;2023-11-19T01:17:48;20.58;;;2.67;;
73100;SDS011;61288;53.446;-2.266;2023-11-19T01:20:13;20.40;;;3.70;;
73100;SDS011;61288;53.446;-2.266;2023-11-19T01:22:39;21.83;;;3.20;;
73100;SDS011;61288;53.446;-2.266;2023-11-19T01:25:05;13.55;;;2.58;;
73100;SDS011;61288;53.446;-2.266;2023-11-19T01:27:32;18.52;;;2.97;;
73100;SDS011;61288;53.446;-2.266;2023-11-19T01:29:59;17.52;;;3.95;;
73100;SDS011;61288;53.446;-2.266;2023-11-19T01:32:29;15.77;;;2.20;;
73100;SDS011;61288;53.446;-2.266;2023-11-19T01:34:55;19.55;;;2.78;;
73100;SDS011;61288;53.446;-2.266;2023-11-19T01:37:20;17.40;;;2.92;;
73100;SDS011;61288;53.446;-2.266;2023-11-19T01:39:46;16.05;;;2.90;;
73100;SDS011;61288;53.446;-2.266;2023-11-19T01:42:11;18.38;;;2.72;;
73100;SDS011;61288;53.446;-2.266;2023-11-19T01:44:41;12.65;;;2.53;;
73100;SDS011;61288;53.446;-2.266;2023-11-19T01:47:07;15.00;;;2.80;;
73100;SDS011;61288;53.446;-2.266;2023-11-19T01:49:34;16.60;;;2.70;;
73100;SDS011;61288;53.446;-2.266;2023-11-19T01:51:59;19.85;;;2.92;;
73100;SDS011;61288;53.446;-2.266;2023-11-19T01:54:25;13.23;;;2.03;;
73100;SDS011;61288;53.446;-2.266;2023-11-19T01:56:53;18.25;;;3.10;;
73100;SDS011;61288;53.446;-2.266;2023-11-19T01:59:21;20.88;;;3.30;;
73100;SDS011;61288;53.446;-2.266;2023-11-19T02:01:52;16.67;;;3.00;;
73100;SDS011;61288;53.446;-2.266;2023-11-19T02:04:20;16.35;;;2.95;;
73100;SDS011;61288;53.446;-2.266;2023-11-19T02:06:47;18.98;;;3.08;;
73100;SDS011;61288;53.446;-2.266;2023-11-19T02:09:14;19.30;;;3.25;;
73100;SDS011;61288;53.446;-2.266;2023-11-19T02:11:45;21.50;;;3.20;;
73100;SDS011;61288;53.446;-2.266;2023-11-19T02:14:16;26.92;;;4.45;;
73100;SDS011;61288;53.446;-2.266;2023-11-19T02:16:43;23.08;;;3.33;;
73100;SDS011;61288;53.446;-2.266;2023-11-19T02:19:09;23.50;;;3.08;;
73100;SDS011;61288;53.446;-2.266;2023-11-19T02:21:36;21.55;;;3.08;;
73100;SDS011;61288;53.446;-2.266;2023-11-19T02:24:03;19.25;;;2.78;;
73100;SDS011;61288;53.446;-2.266;2023-11-19T02:26:44;17.45;;;2.85;;
73100;SDS011;61288;53.446;-2.266;2023-11-19T02:29:17;20.92;;;3.25;;
73100;SDS011;61288;53.446;-2.266;2023-11-19T02:31:43;19.48;;;2.42;;
73100;SDS011;61288;53.446;-2.266;2023-11-19T02:34:10;19.42;;;2.58;;
73100;SDS011;61288;53.446;-2.266;2023-11-19T02:36:37;19.27;;;2.70;;
73100;SDS011;61288;53.446;-2.266;2023-11-19T02:39:03;17.45;;;3.53;;
73100;SDS011;61288;53.446;-2.266;2023-11-19T02:41:28;22.55;;;3.78;;
73100;SDS011;61288;53.446;-2.266;2023-11-19T02:43:55;12.23;;;2.42;;
73100;SDS011;61288;53.446;-2.266;2023-11-19T02:46:21;20.33;;;3.03;;
73100;SDS011;61288;53.446;-2.266;2023-11-19T02:48:46;19.50;;;3.17;;
73100;SDS011;61288;53.446;-2.266;2023-11-19T02:51:12;15.90;;;3.22;;
73100;SDS011;61288;53.446;-2.266;2023-11-19T02:53:37;23.13;;;2.83;;
73100;SDS011;61288;53.446;-2.266;2023-11-19T02:56:05;21.98;;;2.63;;
73100;SDS011;61288;53.446;-2.266;2023-11-19T02:58:44;20.80;;;2.78;;
73100;SDS011;61288;53.446;-2.266;2023-11-19T03:01:11;14.00;;;3.00;;
73100;SDS011;61288;53.446;-2.266;2023-11-19T03:03:56;14.52;;;2.80;;
73100;SDS011;61288;53.446;-2.266;2023-11-19T03:06:23;30.08;;;4.38;;
73100;SDS011;61288;53.446;-2.266;2023-11-19T03:08:49;13.82;;;2.67;;
73100;SDS011;61288;53.446;-2.266;2023-11-19T03:11:15;17.35;;;2.83;;
73100;SDS011;61288;53.446;-2.266;2023-11-19T03:13:40;21.20;;;3.20;;
73100;SDS011;61288;53.446;-2.266;2023-11-19T03:16:06;20.98;;;3.08;;
73100;SDS011;61288;53.446;-2.266;2023-11-19T03:18:32;18.02;;;4.07;;
73100;SDS011;61288;53.446;-2.266;2023-11-19T03:20:58;13.85;;;2.80;;
73100;SDS011;61288;53.446;-2.266;2023-11-19T03:23:23;17.60;;;3.47;;
73100;SDS011;61288;53.446;-2.266;2023-11-19T03:25:50;18.13;;;2.72;;
73100;SDS011;61288;53.446;-2.266;2023-11-19T03:28:15;17.27;;;2.70;;
73100;SDS011;61288;53.446;-2.266;2023-11-19T03:30:41;15.80;;;2.65;;
73100;SDS011;61288;53.446;-2.266;2023-11-19T03:33:07;15.27;;;2.70;;
73100;SDS011;61288;53.446;-2.266;2023-11-19T03:35:32;18.48;;;2.80;;
73100;SDS011;61288;53.446;-2.266;2023-11-19T03:37:58;20.25;;;3.40;;
73100;SDS011;61288;53.446;-2.266;2023-11-19T03:40:23;24.15;;;3.78;;
73100;SDS011;61288;53.446;-2.266;2023-11-19T03:42:50;17.67;;;3.40;;
73100;SDS011;61288;53.446;-2.266;2023-11-19T03:45:15;20.65;;;3.22;;
73100;SDS011;61288;53.446;-2.266;2023-11-19T03:47:41;18.40;;;3.10;;
73100;SDS011;61288;53.446;-2.266;2023-11-19T03:50:07;18.67;;;2.90;;
73100;SDS011;61288;53.446;-2.266;2023-11-19T03:52:33;18.90;;;3.08;;
73100;SDS011;61288;53.446;-2.266;2023-11-19T03:54:59;22.92;;;2.95;;
73100;SDS011;61288;53.446;-2.266;2023-11-19T03:57:25;31.05;;;3.28;;
73100;SDS011;61288;53.446;-2.266;2023-11-19T03:59:52;20.35;;;3.10;;
73100;SDS011;61288;53.446;-2.266;2023-11-19T04:02:17;19.88;;;3.03;;
73100;SDS011;61288;53.446;-2.266;2023-11-19T04:04:43;20.55;;;3.10;;
73100;SDS011;61288;53.446;-2.266;2023-11-19T04:07:08;18.85;;;2.65;;
73100;SDS011;61288;53.446;-2.266;2023-11-19T04:09:34;18.15;;;3.20;;
73100;SDS011;61288;53.446;-2.266;2023-11-19T04:12:00;16.52;;;3.42;;
73100;SDS011;61288;53.446;-2.266;2023-11-19T04:14:26;16.75;;;3.05;;
73100;SDS011;61288;53.446;-2.266;2023-11-19T04:16:52;17.52;;;3.10;;
73100;SDS011;61288;53.446;-2.266;2023-11-19T04:19:18;18.65;;;2.92;;
73100;SDS011;61288;53.446;-2.266;2023-11-19T04:21:44;17.33;;;2.83;;
73100;SDS011;61288;53.446;-2.266;2023-11-19T04:24:10;19.00;;;3.70;;
73100;SDS011;61288;53.446;-2.266;2023-11-19T04:26:45;17.80;;;2.60;;
73100;SDS011;61288;53.446;-2.266;2023-11-19T04:29:15;19.92;;;3.08;;
73100;SDS011;61288;53.446;-2.266;2023-11-19T04:31:45;23.48;;;2.88;;
73100;SDS011;61288;53.446;-2.266;2023-11-19T04:34:11;14.88;;;2.50;;
73100;SDS011;61288;53.446;-2.266;2023-11-19T04:36:38;15.80;;;2.60;;
73100;SDS011;61288;53.446;-2.266;2023-11-19T04:39:04;16.40;;;2.80;;
73100;SDS011;61288;53.446;-2.266;2023-11-19T04:41:45;16.38;;;2.72;;
73100;SDS011;61288;53.446;-2.266;2023-11-19T04:44:12;18.98;;;2.88;;
73100;SDS011;61288;53.446;-2.266;2023-11-19T04:46:38;22.30;;;3.47;;
73100;SDS011;61288;53.446;-2.266;2023-11-19T04:49:03;16.75;;;2.55;;
73100;SDS011;61288;53.446;-2.266;2023-11-19T04:51:29;18.98;;;2.15;;
73100;SDS011;61288;53.446;-2.266;2023-11-19T04:53:55;20.70;;;3.03;;
73100;SDS011;61288;53.446;-2.266;2023-11-19T04:56:21;18.45;;;2.88;;
73100;SDS011;61288;53.446;-2.266;2023-11-19T04:58:48;20.90;;;2.63;;
73100;SDS011;61288;53.446;-2.266;2023-11-19T05:01:14;18.80;;;2.90;;
73100;SDS011;61288;53.446;-2.266;2023-11-19T05:03:43;15.27;;;2.08;;
73100;SDS011;61288;53.446;-2.266;2023-11-19T05:06:10;19.48;;;2.42;;
73100;SDS011;61288;53.446;-2.266;2023-11-19T05:08:36;13.70;;;2.08;;
73100;SDS011;61288;53.446;-2.266;2023-11-19T05:11:01;11.25;;;1.90;;
73100;SDS011;61288;53.446;-2.266;2023-11-19T05:13:27;8.90;;;1.90;;
73100;SDS011;61288;53.446;-2.266;2023-11-19T05:15:52;10.25;;;2.00;;
73100;SDS011;61288;53.446;-2.266;2023-11-19T05:18:18;12.50;;;2.10;;
73100;SDS011;61288;53.446;-2.266;2023-11-19T05:20:44;9.70;;;1.98;;
73100;SDS011;61288;53.446;-2.266;2023-11-19T05:23:10;8.90;;;1.67;;
73100;SDS011;61288;53.446;-2.266;2023-11-19T05:25:36;8.48;;;1.55;;
73100;SDS011;61288;53.446;-2.266;2023-11-19T05:28:02;6.57;;;1.80;;
73100;SDS011;61288;53.446;-2.266;2023-11-19T05:30:27;15.30;;;2.38;;
73100;SDS011;61288;53.446;-2.266;2023-11-19T05:32:53;7.78;;;1.80;;
73100;SDS011;61288;53.446;-2.266;2023-11-19T05:35:18;14.43;;;1.95;;
73100;SDS011;61288;53.446;-2.266;2023-11-19T05:37:44;11.23;;;2.20;;
73100;SDS011;61288;53.446;-2.266;2023-11-19T05:40:09;11.38;;;2.05;;
73100;SDS011;61288;53.446;-2.266;2023-11-19T05:42:42;10.73;;;1.80;;
73100;SDS011;61288;53.446;-2.266;2023-11-19T05:45:08;9.85;;;1.92;;
73100;SDS011;61288;53.446;-2.266;2023-11-19T05:47:36;12.82;;;1.70;;
73100;SDS011;61288;53.446;-2.266;2023-11-19T05:50:02;10.00;;;1.92;;
73100;SDS011;61288;53.446;-2.266;2023-11-19T05:52:28;17.50;;;2.47;;
73100;SDS011;61288;53.446;-2.266;2023-11-19T05:54:58;13.57;;;2.05;;
73100;SDS011;61288;53.446;-2.266;2023-11-19T05:57:27;12.38;;;1.75;;
73100;SDS011;61288;53.446;-2.266;2023-11-19T05:59:54;14.18;;;2.13;;
73100;SDS011;61288;53.446;-2.266;2023-11-19T06:02:20;13.07;;;1.60;;
73100;SDS011;61288;53.446;-2.266;2023-11-19T06:04:46;13.32;;;3.03;;
73100;SDS011;61288;53.446;-2.266;2023-11-19T06:07:13;10.05;;;1.58;;
73100;SDS011;61288;53.446;-2.266;2023-11-19T06:09:40;12.80;;;2.22;;
73100;SDS011;61288;53.446;-2.266;2023-11-19T06:12:06;16.52;;;2.05;;
73100;SDS011;61288;53.446;-2.266;2023-11-19T06:14:32;9.55;;;2.08;;
73100;SDS011;61288;53.446;-2.266;2023-11-19T06:16:58;12.75;;;1.92;;
73100;SDS011;61288;53.446;-2.266;2023-11-19T06:19:23;10.70;;;1.95;;
73100;SDS011;61288;53.446;-2.266;2023-11-19T06:21:50;9.15;;;1.70;;
73100;SDS011;61288;53.446;-2.266;2023-11-19T06:24:15;12.07;;;2.25;;
73100;SDS011;61288;53.446;-2.266;2023-11-19T06:26:41;14.10;;;2.50;;
73100;SDS011;61288;53.446;-2.266;2023-11-19T06:29:07;18.42;;;2.35;;
73100;SDS011;61288;53.446;-2.266;2023-11-19T06:31:32;16.45;;;2.80;;
73100;SDS011;61288;53.446;-2.266;2023-11-19T06:33:57;14.20;;;2.10;;
73100;SDS011;61288;53.446;-2.266;2023-11-19T06:36:24;19.00;;;2.35;;
73100;SDS011;61288;53.446;-2.266;2023-11-19T06:38:49;16.55;;;2.55;;
73100;SDS011;61288;53.446;-2.266;2023-11-19T06:41:14;18.20;;;2.63;;
73100;SDS011;61288;53.446;-2.266;2023-11-19T06:43:40;10.55;;;2.03;;
73100;SDS011;61288;53.446;-2.266;2023-11-19T06:46:05;14.75;;;2.55;;
73100;SDS011;61288;53.446;-2.266;2023-11-19T06:48:39;13.40;;;2.40;;
73100;SDS011;61288;53.446;-2.266;2023-11-19T06:51:05;12.70;;;2.45;;
73100;SDS011;61288;53.446;-2.266;2023-11-19T06:53:30;21.02;;;3.08;;
73100;SDS011;61288;53.446;-2.266;2023-11-19T06:55:56;16.90;;;2.35;;
73100;SDS011;61288;53.446;-2.266;2023-11-19T06:58:22;12.50;;;2.10;;
73100;SDS011;61288;53.446;-2.266;2023-11-19T07:00:47;14.85;;;2.38;;
73100;SDS011;61288;53.446;-2.266;2023-11-19T07:03:14;12.30;;;2.05;;
73100;SDS011;61288;53.446;-2.266;2023-11-19T07:05:41;14.48;;;2.25;;
73100;SDS011;61288;53.446;-2.266;2023-11-19T07:08:06;15.00;;;2.40;;
73100;SDS011;61288;53.446;-2.266;2023-11-19T07:10:35;12.95;;;2.40;;
73100;SDS011;61288;53.446;-2.266;2023-11-19T07:13:00;11.00;;;2.08;;
73100;SDS011;61288;53.446;-2.266;2023-11-19T07:15:25;17.02;;;2.30;;
73100;SDS011;61288;53.446;-2.266;2023-11-19T07:17:51;10.57;;;2.08;;
73100;SDS011;61288;53.446;-2.266;2023-11-19T07:20:20;12.52;;;2.63;;
73100;SDS011;61288;53.446;-2.266;2023-11-19T07:22:46;16.17;;;2.03;;
73100;SDS011;61288;53.446;-2.266;2023-11-19T07:25:15;13.90;;;2.10;;
73100;SDS011;61288;53.446;-2.266;2023-11-19T07:27:40;14.05;;;2.35;;
73100;SDS011;61288;53.446;-2.266;2023-11-19T07:30:06;16.45;;;2.30;;
73100;SDS011;61288;53.446;-2.266;2023-11-19T07:32:34;14.90;;;1.85;;
73100;SDS011;61288;53.446;-2.266;2023-11-19T07:35:00;17.30;;;2.35;;
73100;SDS011;61288;53.446;-2.266;2023-11-19T07:37:26;14.55;;;2.30;;
73100;SDS011;61288;53.446;-2.266;2023-11-19T07:39:51;14.30;;;2.33;;
73100;SDS011;61288;53.446;-2.266;2023-11-19T07:42:16;17.85;;;3.00;;
73100;SDS011;61288;53.446;-2.266;2023-11-19T07:44:43;12.00;;;2.70;;
73100;SDS011;61288;53.446;-2.266;2023-11-19T07:47:09;16.17;;;2.88;;
73100;SDS011;61288;53.446;-2.266;2023-11-19T07:49:35;18.90;;;2.65;;
73100;SDS011;61288;53.446;-2.266;2023-11-19T07:52:01;20.67;;;2.90;;
73100;SDS011;61288;53.446;-2.266;2023-11-19T07:54:28;18.08;;;2.92;;
73100;SDS011;61288;53.446;-2.266;2023-11-19T07:56:53;14.25;;;2.83;;
73100;SDS011;61288;53.446;-2.266;2023-11-19T07:59:19;13.45;;;3.08;;
73100;SDS011;61288;53.446;-2.266;2023-11-19T08:01:45;16.55;;;2.30;;
73100;SDS011;61288;53.446;-2.266;2023-11-19T08:04:10;13.00;;;2.03;;
73100;SDS011;61288;53.446;-2.266;2023-11-19T08:06:37;12.50;;;2.80;;
73100;SDS011;61288;53.446;-2.266;2023-11-19T08:09:04;17.77;;;2.90;;
73100;SDS011;61288;53.446;-2.266;2023-11-19T08:11:30;20.20;;;2.70;;
73100;SDS011;61288;53.446;-2.266;2023-11-19T08:13:55;17.98;;;3.17;;
73100;SDS011;61288;53.446;-2.266;2023-11-19T08:16:21;18.55;;;3.28;;
73100;SDS011;61288;53.446;-2.266;2023-11-19T08:18:46;19.38;;;2.95;;
73100;SDS011;61288;53.446;-2.266;2023-11-19T08:21:12;15.27;;;2.95;;
73100;SDS011;61288;53.446;-2.266;2023-11-19T08:23:38;17.60;;;2.38;;
73100;SDS011;61288;53.446;-2.266;2023-11-19T08:26:04;23.27;;;3.05;;
73100;SDS011;61288;53.446;-2.266;2023-11-19T08:28:30;14.60;;;1.95;;
73100;SDS011;61288;53.446;-2.266;2023-11-19T08:30:56;14.10;;;2.78;;
73100;SDS011;61288;53.446;-2.266;2023-11-19T08:33:22;16.77;;;2.20;;
73100;SDS011;61288;53.446;-2.266;2023-11-19T08:35:47;13.45;;;2.20;;
73100;SDS011;61288;53.446;-2.266;2023-11-19T08:38:13;16.88;;;1.92;;
73100;SDS011;61288;53.446;-2.266;2023-11-19T08:40:39;10.07;;;2.00;;
73100;SDS011;61288;53.446;-2.266;2023-11-19T08:43:04;13.02;;;2.00;;
73100;SDS011;61288;53.446;-2.266;2023-11-19T08:45:31;14.82;;;2.45;;
73100;SDS011;61288;53.446;-2.266;2023-11-19T08:47:57;12.73;;;2.00;;
73100;SDS011;61288;53.446;-2.266;2023-11-19T08:50:22;14.48;;;1.90;;
73100;SDS011;61288;53.446;-2.266;2023-11-19T08:52:47;14.02;;;2.38;;
73100;SDS011;61288;53.446;-2.266;2023-11-19T08:55:13;16.50;;;2.63;;
73100;SDS011;61288;53.446;-2.266;2023-11-19T08:57:38;9.45;;;1.80;;
73100;SDS011;61288;53.446;-2.266;2023-11-19T09:00:04;14.10;;;2.13;;
73100;SDS011;61288;53.446;-2.266;2023-11-19T09:02:34;12.80;;;2.40;;
73100;SDS011;61288;53.446;-2.266;2023-11-19T09:05:02;13.23;;;2.20;;
73100;SDS011;61288;53.446;-2.266;2023-11-19T09:07:28;11.63;;;1.75;;
73100;SDS011;61288;53.446;-2.266;2023-11-19T09:09:53;12.95;;;2.05;;
73100;SDS011;61288;53.446;-2.266;2023-11-19T09:12:18;11.52;;;2.50;;
73100;SDS011;61288;53.446;-2.266;2023-11-19T09:14:44;13.05;;;1.75;;
73100;SDS011;61288;53.446;-2.266;2023-11-19T09:17:10;16.98;;;2.70;;
73100;SDS011;61288;53.446;-2.266;2023-11-19T09:19:36;19.70;;;2.47;;
73100;SDS011;61288;53.446;-2.266;2023-11-19T09:22:01;14.27;;;2.20;;
73100;SDS011;61288;53.446;-2.266;2023-11-19T09:24:27;14.02;;;2.50;;
73100;SDS011;61288;53.446;-2.266;2023-11-19T09:26:53;15.68;;;2.20;;
73100;SDS011;61288;53.446;-2.266;2023-11-19T09:29:19;13.32;;;2.15;;
73100;SDS011;61288;53.446;-2.266;2023-11-19T09:31:46;15.30;;;3.00;;
73100;SDS011;61288;53.446;-2.266;2023-11-19T09:34:12;13.23;;;2.03;;
73100;SDS011;61288;53.446;-2.266;2023-11-19T09:36:37;18.02;;;2.83;;
73100;SDS011;61288;53.446;-2.266;2023-11-19T09:39:03;15.25;;;2.13;;
73100;SDS011;61288;53.446;-2.266;2023-11-19T09:41:29;13.02;;;2.00;;
73100;SDS011;61288;53.446;-2.266;2023-11-19T09:43:56;13.80;;;1.90;;
73100;SDS011;61288;53.446;-2.266;2023-11-19T09:46:21;11.38;;;2.50;;
73100;SDS011;61288;53.446;-2.266;2023-11-19T09:48:49;11.52;;;1.80;;
73100;SDS011;61288;53.446;-2.266;2023-11-19T09:51:21;15.23;;;2.55;;
73100;SDS011;61288;53.446;-2.266;2023-11-19T09:53:47;15.98;;;2.40;;
73100;SDS011;61288;53.446;-2.266;2023-11-19T09:56:13;10.85;;;2.00;;
73100;SDS011;61288;53.446;-2.266;2023-11-19T09:58:39;11.98;;;1.83;;
73100;SDS011;61288;53.446;-2.266;2023-11-19T10:01:05;17.25;;;1.95;;
73100;SDS011;61288;53.446;-2.266;2023-11-19T10:03:35;13.80;;;2.05;;
73100;SDS011;61288;53.446;-2.266;2023-11-19T10:06:03;13.90;;;1.98;;
73100;SDS011;61288;53.446;-2.266;2023-11-19T10:08:29;7.68;;;1.55;;
73100;SDS011;61288;53.446;-2.266;2023-11-19T10:10:55;13.35;;;1.88;;
73100;SDS011;61288;53.446;-2.266;2023-11-19T10:13:25;14.27;;;2.33;;
73100;SDS011;61288;53.446;-2.266;2023-11-19T10:15:52;10.57;;;1.83;;
73100;SDS011;61288;53.446;-2.266;2023-11-19T10:18:26;11.60;;;1.75;;
73100;SDS011;61288;53.446;-2.266;2023-11-19T10:20:52;10.73;;;1.90;;
73100;SDS011;61288;53.446;-2.266;2023-11-19T10:23:20;10.40;;;2.05;;
73100;SDS011;61288;53.446;-2.266;2023-11-19T10:25:46;9.40;;;1.83;;
73100;SDS011;61288;53.446;-2.266;2023-11-19T10:28:11;9.45;;;1.80;;
73100;SDS011;61288;53.446;-2.266;2023-11-19T10:30:41;10.40;;;1.77;;
73100;SDS011;61288;53.446;-2.266;2023-11-19T10:36:01;9.65;;;1.70;;
73100;SDS011;61288;53.446;-2.266;2023-11-19T10:38:26;8.70;;;1.30;;
73100;SDS011;61288;53.446;-2.266;2023-11-19T10:40:52;7.22;;;1.52;;
73100;SDS011;61288;53.446;-2.266;2023-11-19T10:43:19;8.00;;;1.50;;
73100;SDS011;61288;53.446;-2.266;2023-11-19T10:45:49;9.25;;;1.77;;
73100;SDS011;61288;53.446;-2.266;2023-11-19T10:48:14;8.20;;;1.50;;
73100;SDS011;61288;53.446;-2.266;2023-11-19T10:50:41;10.75;;;1.75;;
73100;SDS011;61288;53.446;-2.266;2023-11-19T10:53:08;8.18;;;1.77;;
73100;SDS011;61288;53.446;-2.266;2023-11-19T10:55:36;11.52;;;1.77;;
73100;SDS011;61288;53.446;-2.266;2023-11-19T10:58:06;10.13;;;1.83;;
73100;SDS011;61288;53.446;-2.266;2023-11-19T11:03:12;8.10;;;1.50;;
73100;SDS011;61288;53.446;-2.266;2023-11-19T11:05:41;9.45;;;1.85;;
73100;SDS011;61288;53.446;-2.266;2023-11-19T11:08:08;8.13;;;1.50;;
73100;SDS011;61288;53.446;-2.266;2023-11-19T11:10:36;8.43;;;1.38;;
73100;SDS011;61288;53.446;-2.266;2023-11-19T11:13:14;9.38;;;1.70;;
73100;SDS011;61288;53.446;-2.266;2023-11-19T11:15:40;8.10;;;1.50;;
73100;SDS011;61288;53.446;-2.266;2023-11-19T11:18:09;11.07;;;1.63;;
73100;SDS011;61288;53.446;-2.266;2023-11-19T11:20:34;9.20;;;1.50;;
73100;SDS011;61288;53.446;-2.266;2023-11-19T11:28:54;8.80;;;1.60;;
73100;SDS011;61288;53.446;-2.266;2023-11-19T11:39:53;6.22;;;1.10;;
73100;SDS011;61288;53.446;-2.266;2023-11-19T11:44:58;5.30;;;1.13;;
73100;SDS011;61288;53.446;-2.266;2023-11-19T11:47:25;4.80;;;1.27;;
73100;SDS011;61288;53.446;-2.266;2023-11-19T11:49:51;9.80;;;1.30;;
73100;SDS011;61288;53.446;-2.266;2023-11-19T11:52:19;5.90;;;1.38;;
73100;SDS011;61288;53.446;-2.266;2023-11-19T11:54:46;8.57;;;1.40;;
73100;SDS011;61288;53.446;-2.266;2023-11-19T11:57:12;7.68;;;1.40;;
73100;SDS011;61288;53.446;-2.266;2023-11-19T12:02:05;6.53;;;1.35;;
73100;SDS011;61288;53.446;-2.266;2023-11-19T12:04:34;5.57;;;1.63;;
73100;SDS011;61288;53.446;-2.266;2023-11-19T12:07:11;4.28;;;1.27;;
73100;SDS011;61288;53.446;-2.266;2023-11-19T12:09:40;3.95;;;1.00;;
73100;SDS011;61288;53.446;-2.266;2023-11-19T12:12:22;3.72;;;1.15;;
73100;SDS011;61288;53.446;-2.266;2023-11-19T12:15:00;2.40;;;1.10;;
73100;SDS011;61288;53.446;-2.266;2023-11-19T12:20:08;4.65;;;1.30;;
73100;SDS011;61288;53.446;-2.266;2023-11-19T12:22:45;4.75;;;1.20;;
73100;SDS011;61288;53.446;-2.266;2023-11-19T12:25:12;3.42;;;1.05;;
73100;SDS011;61288;53.446;-2.266;2023-11-19T12:27:41;2.85;;;1.25;;
73100;SDS011;61288;53.446;-2.266;2023-11-19T12:30:10;5.20;;;1.30;;
73100;SDS011;61288;53.446;-2.266;2023-11-19T12:35:08;4.45;;;1.40;;
73100;SDS011;61288;53.446;-2.266;2023-11-19T12:42:51;3.70;;;1.30;;
73100;SDS011;61288;53.446;-2.266;2023-11-19T12:45:18;2.80;;;1.10;;
73100;SDS011;61288;53.446;-2.266;2023-11-19T12:47:46;5.03;;;1.60;;
73100;SDS011;61288;53.446;-2.266;2023-11-19T12:50:20;3.17;;;1.30;;
73100;SDS011;61288;53.446;-2.266;2023-11-19T12:53:04;3.80;;;1.23;;
73100;SDS011;61288;53.446;-2.266;2023-11-19T12:55:31;7.78;;;1.50;;
73100;SDS011;61288;53.446;-2.266;2023-11-19T12:57:57;4.43;;;1.40;;
73100;SDS011;61288;53.446;-2.266;2023-11-19T13:00:26;5.32;;;1.45;;
73100;SDS011;61288;53.446;-2.266;2023-11-19T13:03:00;3.67;;;1.20;;
73100;SDS011;61288;53.446;-2.266;2023-11-19T13:05:30;5.65;;;1.60;;
73100;SDS011;61288;53.446;-2.266;2023-11-19T13:07:59;4.25;;;1.00;;
73100;SDS011;61288;53.446;-2.266;2023-11-19T13:10:33;3.10;;;1.10;;
73100;SDS011;61288;53.446;-2.266;2023-11-19T13:13:15;5.93;;;1.48;;
73100;SDS011;61288;53.446;-2.266;2023-11-19T13:15:40;5.28;;;1.40;;
73100;SDS011;61288;53.446;-2.266;2023-11-19T13:18:06;5.32;;;1.42;;
73100;SDS011;61288;53.446;-2.266;2023-11-19T13:20:31;7.65;;;1.70;;
73100;SDS011;61288;53.446;-2.266;2023-11-19T13:22:58;4.95;;;1.65;;
73100;SDS011;61288;53.446;-2.266;2023-11-19T13:25:25;4.78;;;1.13;;
73100;SDS011;61288;53.446;-2.266;2023-11-19T13:27:51;8.93;;;2.03;;
73100;SDS011;61288;53.446;-2.266;2023-11-19T13:30:17;8.27;;;1.80;;
73100;SDS011;61288;53.446;-2.266;2023-11-19T13:32:43;7.40;;;1.90;;
73100;SDS011;61288;53.446;-2.266;2023-11-19T13:35:13;6.15;;;1.90;;
73100;SDS011;61288;53.446;-2.266;2023-11-19T13:37:39;6.25;;;2.17;;
73100;SDS011;61288;53.446;-2.266;2023-11-19T13:40:06;6.45;;;2.10;;
73100;SDS011;61288;53.446;-2.266;2023-11-19T13:42:34;6.70;;;1.92;;
73100;SDS011;61288;53.446;-2.266;2023-11-19T13:44:59;4.47;;;1.63;;
73100;SDS011;61288;53.446;-2.266;2023-11-19T13:47:24;8.07;;;1.65;;
73100;SDS011;61288;53.446;-2.266;2023-11-19T13:49:50;7.20;;;1.60;;
73100;SDS011;61288;53.446;-2.266;2023-11-19T13:52:15;4.68;;;1.65;;
73100;SDS011;61288;53.446;-2.266;2023-11-19T13:54:41;3.72;;;1.30;;
73100;SDS011;61288;53.446;-2.266;2023-11-19T13:57:06;6.32;;;1.50;;
73100;SDS011;61288;53.446;-2.266;2023-11-19T13:59:32;4.50;;;1.45;;
73100;SDS011;61288;53.446;-2.266;2023-11-19T14:01:58;6.63;;;1.67;;
73100;SDS011;61288;53.446;-2.266;2023-11-19T14:04:23;7.40;;;1.75;;
73100;SDS011;61288;53.446;-2.266;2023-11-19T14:06:50;8.50;;;1.88;;
73100;SDS011;61288;53.446;-2.266;2023-11-19T14:09:16;5.28;;;2.00;;
73100;SDS011;61288;53.446;-2.266;2023-11-19T14:11:42;5.97;;;1.67;;
73100;SDS011;61288;53.446;-2.266;2023-11-19T14:14:08;5.97;;;2.08;;
73100;SDS011;61288;53.446;-2.266;2023-11-19T14:16:34;5.80;;;1.80;;
73100;SDS011;61288;53.446;-2.266;2023-11-19T14:18:59;7.88;;;1.80;;
73100;SDS011;61288;53.446;-2.266;2023-11-19T14:21:25;6.47;;;1.73;;
73100;SDS011;61288;53.446;-2.266;2023-11-19T14:23:52;10.60;;;2.40;;
73100;SDS011;61288;53.446;-2.266;2023-11-19T14:26:18;8.82;;;2.03;;
73100;SDS011;61288;53.446;-2.266;2023-11-19T14:28:44;10.48;;;2.45;;
73100;SDS011;61288;53.446;-2.266;2023-11-19T14:31:10;5.60;;;1.90;;
73100;SDS011;61288;53.446;-2.266;2023-11-19T14:33:36;6.05;;;2.15;;
73100;SDS011;61288;53.446;-2.266;2023-11-19T14:36:04;8.38;;;2.63;;
73100;SDS011;61288;53.446;-2.266;2023-11-19T14:38:31;8.65;;;2.70;;
73100;SDS011;61288;53.446;-2.266;2023-11-19T14:40:58;8.88;;;3.20;;
73100;SDS011;61288;53.446;-2.266;2023-11-19T14:43:24;8.15;;;2.40;;
73100;SDS011;61288;53.446;-2.266;2023-11-19T14:45:50;8.18;;;2.70;;
73100;SDS011;61288;53.446;-2.266;2023-11-19T14:48:16;8.65;;;3.03;;
73100;SDS011;61288;53.446;-2.266;2023-11-19T14:50:42;8.07;;;2.50;;
73100;SDS011;61288;53.446;-2.266;2023-11-19T14:53:09;11.80;;;3.20;;
73100;SDS011;61288;53.446;-2.266;2023-11-19T14:55:35;8.30;;;2.28;;
73100;SDS011;61288;53.446;-2.266;2023-11-19T14:58:01;7.35;;;2.55;;
73100;SDS011;61288;53.446;-2.266;2023-11-19T15:00:26;8.38;;;2.28;;